sensor_id;sensor_type;location;lat;lon;timestamp;P1;durP1;ratioP1;P2;durP2;ratioP2
20828;SDS011;10575;50.124;8.582;2023-04-15T00:00:27;4.90;;;3.50;;
20828;SDS011;10575;50.124;8.582;2023-04-15T00:02:53;7.93;;;4.18;;
20828;SDS011;10575;50.124;8.582;2023-04-15T00:05:19;11.35;;;4.40;;
20828;SDS011;10575;50.124;8.582;2023-04-15T00:07:44;10.05;;;3.65;;
20828;SDS011;10575;50.124;8.582;2023-04-15T00:10:11;6.78;;;3.72;;
20828;SDS011;10575;50.124;8.582;2023-04-15T00:12:37;6.68;;;3.72;;
20828;SDS011;10575;50.124;8.582;2023-04-15T00:15:03;7.18;;;3.67;;
20828;SDS011;10575;50.124;8.582;2023-04-15T00:17:29;8.60;;;4.22;;
20828;SDS011;10575;50.124;8.582;2023-04-15T00:19:55;6.05;;;3.97;;
20828;SDS011;10575;50.124;8.582;2023-04-15T00:22:20;6.57;;;3.42;;
20828;SDS011;10575;50.124;8.582;2023-04-15T00:24:46;10.82;;;4.10;;
20828;SDS011;10575;50.124;8.582;2023-04-15T00:27:12;9.25;;;4.00;;
20828;SDS011;10575;50.124;8.582;2023-04-15T00:29:37;8.68;;;3.63;;
20828;SDS011;10575;50.124;8.582;2023-04-15T00:32:03;5.88;;;3.40;;
20828;SDS011;10575;50.124;8.582;2023-04-15T00:34:28;8.27;;;3.95;;
20828;SDS011;10575;50.124;8.582;2023-04-15T00:36:54;6.10;;;3.75;;
20828;SDS011;10575;50.124;8.582;2023-04-15T00:39:21;8.85;;;4.40;;
20828;SDS011;10575;50.124;8.582;2023-04-15T00:41:46;7.15;;;3.90;;
20828;SDS011;10575;50.124;8.582;2023-04-15T00:44:13;7.65;;;3.78;;
20828;SDS011;10575;50.124;8.582;2023-04-15T00:46:38;6.15;;;3.95;;
20828;SDS011;10575;50.124;8.582;2023-04-15T00:49:05;9.82;;;4.82;;
20828;SDS011;10575;50.124;8.582;2023-04-15T00:51:32;7.82;;;4.05;;
20828;SDS011;10575;50.124;8.582;2023-04-15T00:54:00;11.13;;;3.85;;
20828;SDS011;10575;50.124;8.582;2023-04-15T00:56:29;5.63;;;3.63;;
20828;SDS011;10575;50.124;8.582;2023-04-15T00:58:58;8.73;;;4.30;;
20828;SDS011;10575;50.124;8.582;2023-04-15T01:01:24;12.40;;;3.95;;
20828;SDS011;10575;50.124;8.582;2023-04-15T01:03:50;9.40;;;4.15;;
20828;SDS011;10575;50.124;8.582;2023-04-15T01:06:16;9.48;;;4.55;;
20828;SDS011;10575;50.124;8.582;2023-04-15T01:08:42;9.32;;;4.30;;
20828;SDS011;10575;50.124;8.582;2023-04-15T01:11:09;9.93;;;4.20;;
20828;SDS011;10575;50.124;8.582;2023-04-15T01:13:36;8.75;;;4.40;;
20828;SDS011;10575;50.124;8.582;2023-04-15T01:16:02;9.18;;;4.57;;
20828;SDS011;10575;50.124;8.582;2023-04-15T01:18:28;6.93;;;4.00;;
20828;SDS011;10575;50.124;8.582;2023-04-15T01:20:55;10.60;;;4.43;;
20828;SDS011;10575;50.124;8.582;2023-04-15T01:23:21;7.45;;;3.85;;
20828;SDS011;10575;50.124;8.582;2023-04-15T01:25:50;11.23;;;4.40;;
20828;SDS011;10575;50.124;8.582;2023-04-15T01:28:17;10.18;;;4.05;;
20828;SDS011;10575;50.124;8.582;2023-04-15T01:30:43;6.35;;;4.28;;
20828;SDS011;10575;50.124;8.582;2023-04-15T01:33:08;8.63;;;3.90;;
20828;SDS011;10575;50.124;8.582;2023-04-15T01:35:34;10.77;;;4.30;;
20828;SDS011;10575;50.124;8.582;2023-04-15T01:38:06;9.65;;;4.70;;
20828;SDS011;10575;50.124;8.582;2023-04-15T01:40:33;13.68;;;4.45;;
20828;SDS011;10575;50.124;8.582;2023-04-15T01:42:59;7.72;;;4.43;;
20828;SDS011;10575;50.124;8.582;2023-04-15T01:45:26;7.45;;;4.60;;
20828;SDS011;10575;50.124;8.582;2023-04-15T01:47:52;7.70;;;4.07;;
20828;SDS011;10575;50.124;8.582;2023-04-15T01:50:18;10.32;;;4.32;;
20828;SDS011;10575;50.124;8.582;2023-04-15T01:52:44;8.60;;;4.20;;
20828;SDS011;10575;50.124;8.582;2023-04-15T01:55:11;14.10;;;4.85;;
20828;SDS011;10575;50.124;8.582;2023-04-15T01:57:37;11.07;;;4.68;;
20828;SDS011;10575;50.124;8.582;2023-04-15T02:00:02;6.47;;;4.68;;
20828;SDS011;10575;50.124;8.582;2023-04-15T02:02:28;7.35;;;4.40;;
20828;SDS011;10575;50.124;8.582;2023-04-15T02:04:54;7.78;;;3.90;;
20828;SDS011;10575;50.124;8.582;2023-04-15T02:07:20;8.85;;;4.70;;
20828;SDS011;10575;50.124;8.582;2023-04-15T02:09:45;7.47;;;4.55;;
20828;SDS011;10575;50.124;8.582;2023-04-15T02:12:11;6.90;;;4.30;;
20828;SDS011;10575;50.124;8.582;2023-04-15T02:14:37;8.88;;;4.05;;
20828;SDS011;10575;50.124;8.582;2023-04-15T02:17:03;7.97;;;4.53;;
20828;SDS011;10575;50.124;8.582;2023-04-15T02:19:32;8.45;;;4.20;;
20828;SDS011;10575;50.124;8.582;2023-04-15T02:21:58;7.03;;;4.20;;
20828;SDS011;10575;50.124;8.582;2023-04-15T02:24:25;5.78;;;4.20;;
20828;SDS011;10575;50.124;8.582;2023-04-15T02:26:51;7.45;;;4.13;;
20828;SDS011;10575;50.124;8.582;2023-04-15T02:29:16;7.32;;;4.28;;
20828;SDS011;10575;50.124;8.582;2023-04-15T02:31:42;7.47;;;4.75;;
20828;SDS011;10575;50.124;8.582;2023-04-15T02:34:08;8.15;;;4.65;;
20828;SDS011;10575;50.124;8.582;2023-04-15T02:36:34;9.48;;;5.03;;
20828;SDS011;10575;50.124;8.582;2023-04-15T02:39:00;10.45;;;5.35;;
20828;SDS011;10575;50.124;8.582;2023-04-15T02:41:27;10.93;;;5.18;;
20828;SDS011;10575;50.124;8.582;2023-04-15T02:43:53;9.27;;;4.93;;
20828;SDS011;10575;50.124;8.582;2023-04-15T02:46:19;8.25;;;4.95;;
20828;SDS011;10575;50.124;8.582;2023-04-15T02:48:46;6.95;;;4.70;;
20828;SDS011;10575;50.124;8.582;2023-04-15T02:51:21;10.32;;;4.85;;
20828;SDS011;10575;50.124;8.582;2023-04-15T02:53:47;7.20;;;4.63;;
20828;SDS011;10575;50.124;8.582;2023-04-15T02:56:13;7.57;;;4.13;;
20828;SDS011;10575;50.124;8.582;2023-04-15T02:58:40;7.57;;;4.13;;
20828;SDS011;10575;50.124;8.582;2023-04-15T03:01:06;5.50;;;3.97;;
20828;SDS011;10575;50.124;8.582;2023-04-15T03:03:32;7.93;;;4.85;;
20828;SDS011;10575;50.124;8.582;2023-04-15T03:05:58;7.50;;;4.00;;
20828;SDS011;10575;50.124;8.582;2023-04-15T03:08:24;6.97;;;3.97;;
20828;SDS011;10575;50.124;8.582;2023-04-15T03:10:49;6.22;;;4.30;;
20828;SDS011;10575;50.124;8.582;2023-04-15T03:13:17;6.82;;;3.85;;
20828;SDS011;10575;50.124;8.582;2023-04-15T03:15:42;8.18;;;4.13;;
20828;SDS011;10575;50.124;8.582;2023-04-15T03:18:10;6.40;;;4.05;;
20828;SDS011;10575;50.124;8.582;2023-04-15T03:20:36;7.05;;;4.28;;
20828;SDS011;10575;50.124;8.582;2023-04-15T03:23:01;6.82;;;4.00;;
20828;SDS011;10575;50.124;8.582;2023-04-15T03:25:27;6.95;;;3.78;;
20828;SDS011;10575;50.124;8.582;2023-04-15T03:27:52;12.43;;;4.10;;
20828;SDS011;10575;50.124;8.582;2023-04-15T03:30:18;7.97;;;3.92;;
20828;SDS011;10575;50.124;8.582;2023-04-15T03:32:43;6.13;;;4.00;;
20828;SDS011;10575;50.124;8.582;2023-04-15T03:35:09;9.00;;;3.72;;
20828;SDS011;10575;50.124;8.582;2023-04-15T03:37:34;6.60;;;4.18;;
20828;SDS011;10575;50.124;8.582;2023-04-15T03:40:00;7.20;;;4.10;;
20828;SDS011;10575;50.124;8.582;2023-04-15T03:42:26;7.05;;;4.20;;
20828;SDS011;10575;50.124;8.582;2023-04-15T03:44:52;7.75;;;4.03;;
20828;SDS011;10575;50.124;8.582;2023-04-15T03:47:17;8.77;;;3.85;;
20828;SDS011;10575;50.124;8.582;2023-04-15T03:49:43;7.40;;;4.43;;
20828;SDS011;10575;50.124;8.582;2023-04-15T03:52:08;9.82;;;4.15;;
20828;SDS011;10575;50.124;8.582;2023-04-15T03:54:34;5.78;;;3.78;;
20828;SDS011;10575;50.124;8.582;2023-04-15T03:56:59;6.95;;;4.22;;
20828;SDS011;10575;50.124;8.582;2023-04-15T03:59:25;7.45;;;3.97;;
20828;SDS011;10575;50.124;8.582;2023-04-15T04:01:51;6.93;;;4.35;;
20828;SDS011;10575;50.124;8.582;2023-04-15T04:04:16;7.20;;;4.03;;
20828;SDS011;10575;50.124;8.582;2023-04-15T04:06:42;7.70;;;3.85;;
20828;SDS011;10575;50.124;8.582;2023-04-15T04:09:07;7.07;;;4.10;;
20828;SDS011;10575;50.124;8.582;2023-04-15T04:11:33;12.43;;;4.03;;
20828;SDS011;10575;50.124;8.582;2023-04-15T04:13:58;10.25;;;4.15;;
20828;SDS011;10575;50.124;8.582;2023-04-15T04:16:24;5.38;;;3.50;;
20828;SDS011;10575;50.124;8.582;2023-04-15T04:18:49;4.45;;;3.45;;
20828;SDS011;10575;50.124;8.582;2023-04-15T04:21:15;6.20;;;3.67;;
20828;SDS011;10575;50.124;8.582;2023-04-15T04:23:41;11.98;;;4.28;;
20828;SDS011;10575;50.124;8.582;2023-04-15T04:26:06;7.32;;;4.13;;
20828;SDS011;10575;50.124;8.582;2023-04-15T04:28:32;11.32;;;4.40;;
20828;SDS011;10575;50.124;8.582;2023-04-15T04:30:59;6.22;;;3.78;;
20828;SDS011;10575;50.124;8.582;2023-04-15T04:33:24;8.10;;;4.35;;
20828;SDS011;10575;50.124;8.582;2023-04-15T04:35:50;6.63;;;4.10;;
20828;SDS011;10575;50.124;8.582;2023-04-15T04:38:16;5.90;;;3.65;;
20828;SDS011;10575;50.124;8.582;2023-04-15T04:40:41;9.13;;;4.38;;
20828;SDS011;10575;50.124;8.582;2023-04-15T04:43:07;8.70;;;4.63;;
20828;SDS011;10575;50.124;8.582;2023-04-15T04:45:33;7.35;;;4.07;;
20828;SDS011;10575;50.124;8.582;2023-04-15T04:47:58;12.30;;;5.57;;
20828;SDS011;10575;50.124;8.582;2023-04-15T04:50:24;6.90;;;4.50;;
20828;SDS011;10575;50.124;8.582;2023-04-15T04:52:50;8.00;;;4.22;;
20828;SDS011;10575;50.124;8.582;2023-04-15T04:55:15;7.60;;;3.90;;
20828;SDS011;10575;50.124;8.582;2023-04-15T04:57:41;8.43;;;4.03;;
20828;SDS011;10575;50.124;8.582;2023-04-15T05:00:07;10.15;;;4.78;;
20828;SDS011;10575;50.124;8.582;2023-04-15T05:02:33;11.43;;;4.75;;
20828;SDS011;10575;50.124;8.582;2023-04-15T05:04:58;10.15;;;4.50;;
20828;SDS011;10575;50.124;8.582;2023-04-15T05:07:24;7.45;;;4.43;;
20828;SDS011;10575;50.124;8.582;2023-04-15T05:09:50;10.82;;;5.15;;
20828;SDS011;10575;50.124;8.582;2023-04-15T05:12:16;6.80;;;4.80;;
20828;SDS011;10575;50.124;8.582;2023-04-15T05:14:42;11.15;;;5.07;;
20828;SDS011;10575;50.124;8.582;2023-04-15T05:17:08;8.10;;;5.07;;
20828;SDS011;10575;50.124;8.582;2023-04-15T05:19:33;10.70;;;6.22;;
20828;SDS011;10575;50.124;8.582;2023-04-15T05:21:59;10.07;;;6.70;;
20828;SDS011;10575;50.124;8.582;2023-04-15T05:24:24;8.43;;;5.75;;
20828;SDS011;10575;50.124;8.582;2023-04-15T05:26:50;11.38;;;5.78;;
20828;SDS011;10575;50.124;8.582;2023-04-15T05:29:16;13.10;;;6.65;;
20828;SDS011;10575;50.124;8.582;2023-04-15T05:31:41;8.82;;;5.22;;
20828;SDS011;10575;50.124;8.582;2023-04-15T05:34:07;11.90;;;5.47;;
20828;SDS011;10575;50.124;8.582;2023-04-15T05:36:32;12.38;;;5.38;;
20828;SDS011;10575;50.124;8.582;2023-04-15T05:38:58;10.75;;;5.82;;
20828;SDS011;10575;50.124;8.582;2023-04-15T05:41:24;10.75;;;5.78;;
20828;SDS011;10575;50.124;8.582;2023-04-15T05:43:50;11.27;;;6.15;;
20828;SDS011;10575;50.124;8.582;2023-04-15T05:46:15;13.88;;;6.70;;
20828;SDS011;10575;50.124;8.582;2023-04-15T05:48:41;12.32;;;6.72;;
20828;SDS011;10575;50.124;8.582;2023-04-15T05:51:06;13.80;;;6.95;;
20828;SDS011;10575;50.124;8.582;2023-04-15T05:53:32;15.93;;;6.75;;
20828;SDS011;10575;50.124;8.582;2023-04-15T05:55:57;10.43;;;6.75;;
20828;SDS011;10575;50.124;8.582;2023-04-15T05:58:23;19.13;;;6.70;;
20828;SDS011;10575;50.124;8.582;2023-04-15T06:00:48;12.45;;;6.35;;
20828;SDS011;10575;50.124;8.582;2023-04-15T06:03:14;12.38;;;6.40;;
20828;SDS011;10575;50.124;8.582;2023-04-15T06:05:40;13.63;;;6.05;;
20828;SDS011;10575;50.124;8.582;2023-04-15T06:08:06;15.73;;;7.00;;
20828;SDS011;10575;50.124;8.582;2023-04-15T06:10:32;9.60;;;6.30;;
20828;SDS011;10575;50.124;8.582;2023-04-15T06:13:00;12.55;;;6.50;;
20828;SDS011;10575;50.124;8.582;2023-04-15T06:15:27;9.55;;;6.45;;
20828;SDS011;10575;50.124;8.582;2023-04-15T06:17:53;9.80;;;6.10;;
20828;SDS011;10575;50.124;8.582;2023-04-15T06:20:19;11.40;;;5.80;;
20828;SDS011;10575;50.124;8.582;2023-04-15T06:22:44;11.30;;;6.50;;
20828;SDS011;10575;50.124;8.582;2023-04-15T06:25:10;11.88;;;6.55;;
20828;SDS011;10575;50.124;8.582;2023-04-15T06:27:35;9.88;;;5.88;;
20828;SDS011;10575;50.124;8.582;2023-04-15T06:30:01;10.30;;;6.47;;
20828;SDS011;10575;50.124;8.582;2023-04-15T06:32:28;11.45;;;6.15;;
20828;SDS011;10575;50.124;8.582;2023-04-15T06:34:53;9.68;;;5.80;;
20828;SDS011;10575;50.124;8.582;2023-04-15T06:37:19;15.65;;;6.28;;
20828;SDS011;10575;50.124;8.582;2023-04-15T06:39:44;9.85;;;5.72;;
20828;SDS011;10575;50.124;8.582;2023-04-15T06:42:10;10.80;;;5.80;;
20828;SDS011;10575;50.124;8.582;2023-04-15T06:44:36;11.23;;;5.70;;
20828;SDS011;10575;50.124;8.582;2023-04-15T06:47:01;6.68;;;5.47;;
20828;SDS011;10575;50.124;8.582;2023-04-15T06:49:27;9.85;;;5.78;;
20828;SDS011;10575;50.124;8.582;2023-04-15T06:51:53;8.48;;;5.32;;
20828;SDS011;10575;50.124;8.582;2023-04-15T06:54:18;11.57;;;5.93;;
20828;SDS011;10575;50.124;8.582;2023-04-15T06:56:44;7.72;;;5.43;;
20828;SDS011;10575;50.124;8.582;2023-04-15T06:59:10;7.20;;;5.28;;
20828;SDS011;10575;50.124;8.582;2023-04-15T07:01:35;11.60;;;4.85;;
20828;SDS011;10575;50.124;8.582;2023-04-15T07:04:01;8.10;;;5.10;;
20828;SDS011;10575;50.124;8.582;2023-04-15T07:06:26;7.20;;;5.15;;
20828;SDS011;10575;50.124;8.582;2023-04-15T07:08:52;11.30;;;5.32;;
20828;SDS011;10575;50.124;8.582;2023-04-15T07:11:18;6.07;;;4.25;;
20828;SDS011;10575;50.124;8.582;2023-04-15T07:13:45;8.10;;;5.05;;
20828;SDS011;10575;50.124;8.582;2023-04-15T07:16:10;6.88;;;4.30;;
20828;SDS011;10575;50.124;8.582;2023-04-15T07:18:36;9.00;;;4.80;;
20828;SDS011;10575;50.124;8.582;2023-04-15T07:21:01;6.53;;;4.63;;
20828;SDS011;10575;50.124;8.582;2023-04-15T07:23:27;7.75;;;4.38;;
20828;SDS011;10575;50.124;8.582;2023-04-15T07:25:53;4.72;;;4.20;;
20828;SDS011;10575;50.124;8.582;2023-04-15T07:28:18;6.85;;;4.00;;
20828;SDS011;10575;50.124;8.582;2023-04-15T07:30:44;12.13;;;5.35;;
20828;SDS011;10575;50.124;8.582;2023-04-15T07:33:10;6.35;;;4.60;;
20828;SDS011;10575;50.124;8.582;2023-04-15T07:35:35;7.20;;;5.20;;
20828;SDS011;10575;50.124;8.582;2023-04-15T07:38:01;6.47;;;4.13;;
20828;SDS011;10575;50.124;8.582;2023-04-15T07:40:27;5.90;;;4.25;;
20828;SDS011;10575;50.124;8.582;2023-04-15T07:42:53;8.65;;;4.20;;
20828;SDS011;10575;50.124;8.582;2023-04-15T07:45:20;8.10;;;4.95;;
20828;SDS011;10575;50.124;8.582;2023-04-15T07:47:45;10.65;;;5.07;;
20828;SDS011;10575;50.124;8.582;2023-04-15T07:50:11;8.52;;;4.95;;
20828;SDS011;10575;50.124;8.582;2023-04-15T07:52:36;7.65;;;4.80;;
20828;SDS011;10575;50.124;8.582;2023-04-15T07:55:05;8.35;;;4.75;;
20828;SDS011;10575;50.124;8.582;2023-04-15T07:57:35;10.27;;;5.10;;
20828;SDS011;10575;50.124;8.582;2023-04-15T08:00:01;8.75;;;5.63;;
20828;SDS011;10575;50.124;8.582;2023-04-15T08:02:29;8.15;;;5.13;;
20828;SDS011;10575;50.124;8.582;2023-04-15T08:04:55;8.52;;;5.47;;
20828;SDS011;10575;50.124;8.582;2023-04-15T08:07:24;7.75;;;5.47;;
20828;SDS011;10575;50.124;8.582;2023-04-15T08:09:55;10.43;;;5.85;;
20828;SDS011;10575;50.124;8.582;2023-04-15T08:12:21;8.20;;;6.00;;
20828;SDS011;10575;50.124;8.582;2023-04-15T08:14:48;9.18;;;5.68;;
20828;SDS011;10575;50.124;8.582;2023-04-15T08:17:14;6.72;;;4.85;;
20828;SDS011;10575;50.124;8.582;2023-04-15T08:19:40;8.80;;;5.00;;
20828;SDS011;10575;50.124;8.582;2023-04-15T08:22:06;9.68;;;5.43;;
20828;SDS011;10575;50.124;8.582;2023-04-15T08:24:32;8.77;;;4.65;;
20828;SDS011;10575;50.124;8.582;2023-04-15T08:26:57;9.73;;;5.72;;
20828;SDS011;10575;50.124;8.582;2023-04-15T08:29:23;7.47;;;4.93;;
20828;SDS011;10575;50.124;8.582;2023-04-15T08:31:49;8.90;;;5.20;;
20828;SDS011;10575;50.124;8.582;2023-04-15T08:34:15;11.25;;;5.20;;
20828;SDS011;10575;50.124;8.582;2023-04-15T08:36:41;8.80;;;5.65;;
20828;SDS011;10575;50.124;8.582;2023-04-15T08:39:06;7.82;;;4.70;;
20828;SDS011;10575;50.124;8.582;2023-04-15T08:41:39;10.52;;;4.40;;
20828;SDS011;10575;50.124;8.582;2023-04-15T08:44:23;9.40;;;4.15;;
20828;SDS011;10575;50.124;8.582;2023-04-15T08:46:50;7.68;;;4.05;;
20828;SDS011;10575;50.124;8.582;2023-04-15T08:49:16;7.80;;;4.20;;
20828;SDS011;10575;50.124;8.582;2023-04-15T08:51:44;7.25;;;3.70;;
20828;SDS011;10575;50.124;8.582;2023-04-15T08:54:10;6.72;;;4.00;;
20828;SDS011;10575;50.124;8.582;2023-04-15T08:56:37;6.35;;;3.70;;
20828;SDS011;10575;50.124;8.582;2023-04-15T08:59:03;5.32;;;3.22;;
20828;SDS011;10575;50.124;8.582;2023-04-15T09:01:29;6.88;;;3.30;;
20828;SDS011;10575;50.124;8.582;2023-04-15T09:03:56;3.80;;;2.70;;
20828;SDS011;10575;50.124;8.582;2023-04-15T09:06:22;6.78;;;3.63;;
20828;SDS011;10575;50.124;8.582;2023-04-15T09:08:49;6.75;;;3.22;;
20828;SDS011;10575;50.124;8.582;2023-04-15T09:11:15;4.68;;;3.20;;
20828;SDS011;10575;50.124;8.582;2023-04-15T09:13:44;3.38;;;2.47;;
20828;SDS011;10575;50.124;8.582;2023-04-15T09:16:10;5.47;;;3.10;;
20828;SDS011;10575;50.124;8.582;2023-04-15T09:18:37;3.83;;;2.90;;
20828;SDS011;10575;50.124;8.582;2023-04-15T09:21:07;6.13;;;3.20;;
20828;SDS011;10575;50.124;8.582;2023-04-15T09:23:38;6.00;;;3.20;;
20828;SDS011;10575;50.124;8.582;2023-04-15T09:26:05;4.90;;;3.17;;
20828;SDS011;10575;50.124;8.582;2023-04-15T09:28:31;5.35;;;3.03;;
20828;SDS011;10575;50.124;8.582;2023-04-15T09:31:00;5.07;;;2.80;;
20828;SDS011;10575;50.124;8.582;2023-04-15T09:33:27;4.00;;;2.70;;
20828;SDS011;10575;50.124;8.582;2023-04-15T09:38:26;5.50;;;3.40;;
20828;SDS011;10575;50.124;8.582;2023-04-15T09:40:52;5.03;;;3.15;;
20828;SDS011;10575;50.124;8.582;2023-04-15T09:43:18;6.20;;;3.60;;
20828;SDS011;10575;50.124;8.582;2023-04-15T09:45:48;3.92;;;3.50;;
20828;SDS011;10575;50.124;8.582;2023-04-15T09:48:24;5.80;;;3.15;;
20828;SDS011;10575;50.124;8.582;2023-04-15T09:50:51;5.18;;;3.53;;
20828;SDS011;10575;50.124;8.582;2023-04-15T09:53:21;6.40;;;2.47;;
20828;SDS011;10575;50.124;8.582;2023-04-15T09:55:52;5.70;;;2.55;;
20828;SDS011;10575;50.124;8.582;2023-04-15T09:58:19;10.90;;;3.83;;
20828;SDS011;10575;50.124;8.582;2023-04-15T10:00:47;9.18;;;4.60;;
20828;SDS011;10575;50.124;8.582;2023-04-15T10:03:17;5.97;;;3.90;;
20828;SDS011;10575;50.124;8.582;2023-04-15T10:05:45;4.93;;;3.75;;
20828;SDS011;10575;50.124;8.582;2023-04-15T10:08:17;6.20;;;4.30;;
20828;SDS011;10575;50.124;8.582;2023-04-15T10:10:44;6.18;;;3.95;;
20828;SDS011;10575;50.124;8.582;2023-04-15T10:13:16;5.35;;;3.70;;
20828;SDS011;10575;50.124;8.582;2023-04-15T10:15:43;6.70;;;3.72;;
20828;SDS011;10575;50.124;8.582;2023-04-15T10:18:14;5.60;;;3.30;;
20828;SDS011;10575;50.124;8.582;2023-04-15T10:20:41;5.82;;;3.55;;
20828;SDS011;10575;50.124;8.582;2023-04-15T10:23:08;3.65;;;2.70;;
20828;SDS011;10575;50.124;8.582;2023-04-15T10:25:33;5.30;;;3.10;;
20828;SDS011;10575;50.124;8.582;2023-04-15T10:28:00;6.43;;;3.33;;
20828;SDS011;10575;50.124;8.582;2023-04-15T10:30:27;5.28;;;3.47;;
20828;SDS011;10575;50.124;8.582;2023-04-15T10:32:53;6.70;;;3.03;;
20828;SDS011;10575;50.124;8.582;2023-04-15T10:35:20;4.53;;;3.05;;
20828;SDS011;10575;50.124;8.582;2023-04-15T10:37:47;3.80;;;3.15;;
20828;SDS011;10575;50.124;8.582;2023-04-15T10:40:25;6.63;;;2.85;;
20828;SDS011;10575;50.124;8.582;2023-04-15T10:42:52;6.75;;;2.88;;
20828;SDS011;10575;50.124;8.582;2023-04-15T10:45:19;9.40;;;2.67;;
20828;SDS011;10575;50.124;8.582;2023-04-15T10:47:44;3.58;;;2.38;;
20828;SDS011;10575;50.124;8.582;2023-04-15T10:50:10;3.30;;;2.33;;
20828;SDS011;10575;50.124;8.582;2023-04-15T10:52:36;5.22;;;2.97;;
20828;SDS011;10575;50.124;8.582;2023-04-15T10:55:12;4.18;;;3.28;;
20828;SDS011;10575;50.124;8.582;2023-04-15T10:57:40;5.82;;;3.10;;
20828;SDS011;10575;50.124;8.582;2023-04-15T11:05:12;6.40;;;2.60;;
20828;SDS011;10575;50.124;8.582;2023-04-15T11:07:40;5.05;;;3.20;;
20828;SDS011;10575;50.124;8.582;2023-04-15T11:12:42;4.82;;;3.03;;
20828;SDS011;10575;50.124;8.582;2023-04-15T11:15:26;5.53;;;3.47;;
20828;SDS011;10575;50.124;8.582;2023-04-15T11:17:54;4.93;;;2.92;;
20828;SDS011;10575;50.124;8.582;2023-04-15T11:20:32;6.25;;;3.05;;
20828;SDS011;10575;50.124;8.582;2023-04-15T11:22:58;6.43;;;3.53;;
20828;SDS011;10575;50.124;8.582;2023-04-15T11:25:24;18.63;;;7.97;;
20828;SDS011;10575;50.124;8.582;2023-04-15T11:27:54;7.30;;;4.35;;
20828;SDS011;10575;50.124;8.582;2023-04-15T11:30:21;7.90;;;4.45;;
20828;SDS011;10575;50.124;8.582;2023-04-15T11:32:48;4.43;;;3.08;;
20828;SDS011;10575;50.124;8.582;2023-04-15T11:35:18;4.57;;;3.38;;
20828;SDS011;10575;50.124;8.582;2023-04-15T11:37:44;5.18;;;3.17;;
20828;SDS011;10575;50.124;8.582;2023-04-15T11:40:10;5.45;;;3.08;;
20828;SDS011;10575;50.124;8.582;2023-04-15T11:42:37;6.30;;;3.67;;
20828;SDS011;10575;50.124;8.582;2023-04-15T11:45:08;5.07;;;3.80;;
20828;SDS011;10575;50.124;8.582;2023-04-15T11:47:36;4.57;;;3.63;;
20828;SDS011;10575;50.124;8.582;2023-04-15T11:50:16;8.30;;;5.15;;
20828;SDS011;10575;50.124;8.582;2023-04-15T11:52:54;5.35;;;3.60;;
20828;SDS011;10575;50.124;8.582;2023-04-15T11:55:22;5.32;;;3.85;;
20828;SDS011;10575;50.124;8.582;2023-04-15T12:00:49;4.88;;;3.80;;
20828;SDS011;10575;50.124;8.582;2023-04-15T12:06:11;5.82;;;4.25;;
20828;SDS011;10575;50.124;8.582;2023-04-15T12:13:54;5.28;;;3.83;;
20828;SDS011;10575;50.124;8.582;2023-04-15T12:16:29;5.07;;;3.53;;
20828;SDS011;10575;50.124;8.582;2023-04-15T12:18:56;2.70;;;2.42;;
20828;SDS011;10575;50.124;8.582;2023-04-15T12:21:23;2.72;;;1.70;;
20828;SDS011;10575;50.124;8.582;2023-04-15T12:23:51;3.92;;;2.15;;
20828;SDS011;10575;50.124;8.582;2023-04-15T12:26:30;4.47;;;1.95;;
20828;SDS011;10575;50.124;8.582;2023-04-15T12:29:01;2.28;;;1.48;;
20828;SDS011;10575;50.124;8.582;2023-04-15T12:31:32;2.25;;;1.40;;
20828;SDS011;10575;50.124;8.582;2023-04-15T12:34:02;1.77;;;1.00;;
20828;SDS011;10575;50.124;8.582;2023-04-15T12:36:31;1.27;;;1.17;;
20828;SDS011;10575;50.124;8.582;2023-04-15T12:39:01;2.72;;;1.70;;
20828;SDS011;10575;50.124;8.582;2023-04-15T12:41:28;1.38;;;1.10;;
20828;SDS011;10575;50.124;8.582;2023-04-15T12:43:53;2.90;;;1.38;;
20828;SDS011;10575;50.124;8.582;2023-04-15T12:46:19;1.63;;;1.20;;
20828;SDS011;10575;50.124;8.582;2023-04-15T12:48:45;2.53;;;1.70;;
20828;SDS011;10575;50.124;8.582;2023-04-15T12:51:11;1.58;;;1.38;;
20828;SDS011;10575;50.124;8.582;2023-04-15T12:53:37;1.67;;;1.27;;
20828;SDS011;10575;50.124;8.582;2023-04-15T12:56:03;1.38;;;1.27;;
20828;SDS011;10575;50.124;8.582;2023-04-15T12:58:28;1.77;;;1.42;;
20828;SDS011;10575;50.124;8.582;2023-04-15T13:00:54;2.25;;;1.42;;
20828;SDS011;10575;50.124;8.582;2023-04-15T13:03:19;3.13;;;1.85;;
20828;SDS011;10575;50.124;8.582;2023-04-15T13:05:45;2.35;;;1.77;;
20828;SDS011;10575;50.124;8.582;2023-04-15T13:08:10;2.20;;;1.50;;
20828;SDS011;10575;50.124;8.582;2023-04-15T13:10:36;2.70;;;1.98;;
20828;SDS011;10575;50.124;8.582;2023-04-15T13:13:02;1.85;;;1.45;;
20828;SDS011;10575;50.124;8.582;2023-04-15T13:15:28;1.60;;;1.20;;
20828;SDS011;10575;50.124;8.582;2023-04-15T13:17:53;2.90;;;1.20;;
20828;SDS011;10575;50.124;8.582;2023-04-15T13:20:19;1.77;;;1.20;;
20828;SDS011;10575;50.124;8.582;2023-04-15T13:22:45;2.58;;;1.80;;
20828;SDS011;10575;50.124;8.582;2023-04-15T13:25:10;1.88;;;1.48;;
20828;SDS011;10575;50.124;8.582;2023-04-15T13:27:36;1.55;;;1.42;;
20828;SDS011;10575;50.124;8.582;2023-04-15T13:30:02;1.52;;;1.38;;
20828;SDS011;10575;50.124;8.582;2023-04-15T13:32:28;1.50;;;1.27;;
20828;SDS011;10575;50.124;8.582;2023-04-15T13:34:53;1.60;;;1.50;;
20828;SDS011;10575;50.124;8.582;2023-04-15T13:37:21;3.00;;;1.90;;
20828;SDS011;10575;50.124;8.582;2023-04-15T13:39:50;2.65;;;1.90;;
20828;SDS011;10575;50.124;8.582;2023-04-15T13:42:16;2.20;;;1.70;;
20828;SDS011;10575;50.124;8.582;2023-04-15T13:44:41;3.17;;;1.48;;
20828;SDS011;10575;50.124;8.582;2023-04-15T13:47:07;1.23;;;1.10;;
20828;SDS011;10575;50.124;8.582;2023-04-15T13:49:32;1.33;;;1.10;;
20828;SDS011;10575;50.124;8.582;2023-04-15T13:51:58;1.40;;;0.98;;
20828;SDS011;10575;50.124;8.582;2023-04-15T13:54:23;3.13;;;1.30;;
20828;SDS011;10575;50.124;8.582;2023-04-15T13:56:49;2.53;;;0.90;;
20828;SDS011;10575;50.124;8.582;2023-04-15T13:59:14;0.80;;;0.80;;
20828;SDS011;10575;50.124;8.582;2023-04-15T14:01:40;1.23;;;0.95;;
20828;SDS011;10575;50.124;8.582;2023-04-15T14:04:05;0.70;;;0.70;;
20828;SDS011;10575;50.124;8.582;2023-04-15T14:06:31;2.35;;;1.55;;
20828;SDS011;10575;50.124;8.582;2023-04-15T14:08:56;3.15;;;1.90;;
20828;SDS011;10575;50.124;8.582;2023-04-15T14:11:22;1.27;;;1.10;;
20828;SDS011;10575;50.124;8.582;2023-04-15T14:13:47;1.15;;;0.90;;
20828;SDS011;10575;50.124;8.582;2023-04-15T14:16:13;0.75;;;0.75;;
20828;SDS011;10575;50.124;8.582;2023-04-15T14:18:39;1.23;;;1.10;;
20828;SDS011;10575;50.124;8.582;2023-04-15T14:21:04;1.33;;;1.10;;
20828;SDS011;10575;50.124;8.582;2023-04-15T14:23:31;1.65;;;1.35;;
20828;SDS011;10575;50.124;8.582;2023-04-15T14:25:56;1.33;;;0.90;;
20828;SDS011;10575;50.124;8.582;2023-04-15T14:28:22;1.63;;;0.80;;
20828;SDS011;10575;50.124;8.582;2023-04-15T14:30:48;0.95;;;0.90;;
20828;SDS011;10575;50.124;8.582;2023-04-15T14:33:14;1.10;;;1.00;;
20828;SDS011;10575;50.124;8.582;2023-04-15T14:35:40;1.20;;;1.10;;
20828;SDS011;10575;50.124;8.582;2023-04-15T14:38:05;2.03;;;1.33;;
20828;SDS011;10575;50.124;8.582;2023-04-15T14:40:34;2.45;;;1.70;;
20828;SDS011;10575;50.124;8.582;2023-04-15T14:43:00;1.80;;;1.50;;
20828;SDS011;10575;50.124;8.582;2023-04-15T14:45:25;1.10;;;0.95;;
20828;SDS011;10575;50.124;8.582;2023-04-15T14:47:51;2.78;;;1.48;;
20828;SDS011;10575;50.124;8.582;2023-04-15T14:50:17;1.25;;;1.15;;
20828;SDS011;10575;50.124;8.582;2023-04-15T14:52:42;1.25;;;1.15;;
20828;SDS011;10575;50.124;8.582;2023-04-15T14:55:08;1.33;;;1.10;;
20828;SDS011;10575;50.124;8.582;2023-04-15T14:57:36;1.10;;;1.00;;
20828;SDS011;10575;50.124;8.582;2023-04-15T15:00:02;1.00;;;0.90;;
20828;SDS011;10575;50.124;8.582;2023-04-15T15:02:29;0.98;;;0.90;;